Impacts TAF Board INFO
FOR SITUATIONAL AWARENESS. NOT TO BE USED FOR FLIGHT PLANNING PURPOSES.
IDs:

KMIA - Miami Intl, FL, US

Issued at 1729 UTC 21 Jun 2018
Updated at 1951 UTC 21 Jun 2018
Potential Impact None Slight Moderate High
Time<<22/20Z 22/21Z 22/22Z 22/23Z 23/00Z 23/01Z 23/02Z 23/03Z 23/04Z 23/05Z 23/06Z 23/07Z 23/08Z
Type PRVL PRVL PRVL PRVL
VIS >6 >6 >6 >6
CIG -- -- -- --
Cover SCT SCT SCT SCT
FltCat VFR VFR VFR VFR
WX -- -- -- --
WDir 270 270 270 270
WSpd 6 6 6 6
WGst -- -- -- --

Raw TAF
KMIA 211729Z 2118/2224 27010KT P6SM SHRA VCTS SCT025CB BKN050
  TEMPO 2118/2121 VRB15KT 4SM TSRA SCT015 BKN025CB
  FM220000 26005KT P6SM FEW025 SCT080 BKN120
  FM220200 VRB03KT P6SM FEW025 SCT250
  FM221400 27006KT P6SM FEW025 SCT050


METAR Board
Radar Display
Forecast Discussion

FOR SITUATIONAL AWARENESS. NOT TO BE USED FOR FLIGHT PLANNING PURPOSES.